createdAt,value
2022-09-12T00:01:05.334Z,94.50
2022-09-12T00:03:33.471Z,95.40
2022-09-12T00:06:01.367Z,95.50
2022-09-12T00:08:30.560Z,95.00
2022-09-12T00:10:58.417Z,94.00
2022-09-12T00:13:26.307Z,94.50
2022-09-12T00:15:54.276Z,94.00
2022-09-12T00:18:22.142Z,93.40
2022-09-12T00:20:50.109Z,94.20
2022-09-12T00:23:17.970Z,94.80
2022-09-12T00:25:48.836Z,95.40
2022-09-12T00:28:19.103Z,96.10
2022-09-12T00:30:48.914Z,96.40
2022-09-12T00:33:18.573Z,96.20
2022-09-12T00:35:48.297Z,96.20
2022-09-12T00:38:17.294Z,95.30
2022-09-12T00:40:47.081Z,93.70
2022-09-12T00:43:16.373Z,94.50
2022-09-12T00:45:44.255Z,95.90
2022-09-12T00:48:23.132Z,95.90
2022-09-12T00:50:51.521Z,95.30
2022-09-12T00:53:19.578Z,94.70
2022-09-12T00:55:51.904Z,93.80
2022-09-12T00:58:24.102Z,94.30
2022-09-12T01:00:52.833Z,95.30
2022-09-12T01:03:23.835Z,95.80
2022-09-12T01:05:59.545Z,96.00
2022-09-12T01:08:29.538Z,96.30
2022-09-12T01:10:59.075Z,96.50
2022-09-12T01:13:27.917Z,96.00
2022-09-12T01:15:55.972Z,95.90
2022-09-12T01:18:31.354Z,96.00
2022-09-12T01:21:12.244Z,96.50
2022-09-12T01:24:32.230Z,96.10
2022-09-12T01:27:40.793Z,95.80
2022-09-12T01:30:33.258Z,96.30
2022-09-12T01:33:28.814Z,96.40
2022-09-12T01:36:17.118Z,96.30
2022-09-12T01:38:50.165Z,96.30
2022-09-12T01:41:26.852Z,96.30
2022-09-12T01:44:03.246Z,95.80
2022-09-12T01:46:36.802Z,96.00
2022-09-12T01:49:10.013Z,96.50
2022-09-12T01:51:43.275Z,96.70
2022-09-12T01:54:15.943Z,96.80
2022-09-12T01:56:44.886Z,96.50
2022-09-12T01:59:19.875Z,96.40
2022-09-12T02:01:54.945Z,96.30
2022-09-12T02:04:29.153Z,96.20
2022-09-12T02:07:03.995Z,96.00
2022-09-12T02:09:37.443Z,95.30
2022-09-12T02:12:09.725Z,95.60
2022-09-12T02:14:41.240Z,96.00
2022-09-12T02:17:13.394Z,96.30
2022-09-12T02:19:44.435Z,96.40
2022-09-12T02:22:18.288Z,96.20
2022-09-12T02:24:50.251Z,96.30
2022-09-12T02:27:22.378Z,96.30
2022-09-12T02:29:51.351Z,95.80
2022-09-12T02:32:29.531Z,96.10
2022-09-12T02:35:06.871Z,95.20
2022-09-12T02:37:46.785Z,94.10
2022-09-12T02:40:15.940Z,95.50
2022-09-12T02:42:43.849Z,96.10
2022-09-12T02:45:12.569Z,95.70
2022-09-12T02:47:46.590Z,95.70
2022-09-12T02:50:14.796Z,96.20
2022-09-12T02:52:43.979Z,96.40
2022-09-12T02:55:12.821Z,96.70
2022-09-12T02:57:40.718Z,96.70
2022-09-12T03:00:10.257Z,96.60
2022-09-12T03:02:55.083Z,96.30
2022-09-12T03:05:27.889Z,96.40
2022-09-12T03:08:24.007Z,96.30
2022-09-12T03:11:10.419Z,96.20
2022-09-12T03:13:47.199Z,95.30
2022-09-12T03:16:27.625Z,95.20
2022-09-12T03:19:04.574Z,95.20
2022-09-12T03:21:38.125Z,95.20
2022-09-12T03:24:13.638Z,94.60
2022-09-12T03:26:47.126Z,95.20
2022-09-12T03:29:16.919Z,95.60
2022-09-12T03:31:52.910Z,95.90
2022-09-12T03:34:23.633Z,96.40
2022-09-12T03:36:52.430Z,96.80
2022-09-12T03:39:21.007Z,96.90
2022-09-12T03:41:48.902Z,96.90
2022-09-12T03:44:16.780Z,96.40
2022-09-12T03:46:45.023Z,96.50
2022-09-12T03:49:13.091Z,96.40
2022-09-12T03:51:42.982Z,96.00
2022-09-12T03:54:11.588Z,95.70
2022-09-12T03:56:40.337Z,95.10
2022-09-12T03:59:09.059Z,95.10
2022-09-12T04:01:38.041Z,95.00
2022-09-12T04:04:05.925Z,95.40
2022-09-12T04:06:33.758Z,96.20
2022-09-12T04:09:02.971Z,96.30
2022-09-12T04:11:32.157Z,96.40
2022-09-12T04:14:00.066Z,96.50
2022-09-12T04:16:28.071Z,96.00
2022-09-12T04:18:56.032Z,96.20
2022-09-12T04:21:23.886Z,96.10
2022-09-12T04:23:51.861Z,95.70
2022-09-12T04:26:21.623Z,95.00
2022-09-12T04:28:49.891Z,95.60
2022-09-12T04:31:20.659Z,95.80
2022-09-12T04:33:53.863Z,96.30
2022-09-12T04:36:22.840Z,95.40
2022-09-12T04:38:51.528Z,95.40
2022-09-12T04:41:22.275Z,95.90
2022-09-12T04:43:54.330Z,95.60
2022-09-12T04:46:22.662Z,95.90
2022-09-12T04:48:55.912Z,96.30
2022-09-12T04:51:27.689Z,96.20
2022-09-12T04:53:57.616Z,96.40
2022-09-12T04:56:27.777Z,96.30
2022-09-12T04:58:57.892Z,95.60
2022-09-12T05:01:25.889Z,96.30
2022-09-12T05:03:55.123Z,94.20
2022-09-12T05:06:24.846Z,94.10
2022-09-12T05:08:53.637Z,93.90
2022-09-12T05:11:25.578Z,94.00
2022-09-12T05:13:57.765Z,94.20
2022-09-12T05:16:28.913Z,94.30
2022-09-12T05:18:58.304Z,94.10
2022-09-12T05:21:27.558Z,94.40
2022-09-12T05:23:56.612Z,94.40
2022-09-12T05:26:24.969Z,94.90
2022-09-12T05:28:53.979Z,96.30
2022-09-12T05:31:24.762Z,95.70
2022-09-12T05:33:54.642Z,95.30
2022-09-12T05:36:24.223Z,95.40
2022-09-12T05:38:52.306Z,95.20
2022-09-12T05:41:24.839Z,95.40
2022-09-12T05:43:54.937Z,95.40
2022-09-12T05:46:25.809Z,95.30
2022-09-12T05:48:56.490Z,95.40
2022-09-12T05:51:26.723Z,95.60
2022-09-12T05:53:57.657Z,96.30
2022-09-12T05:56:27.307Z,96.30
2022-09-12T05:58:57.367Z,96.50
2022-09-12T06:01:27.630Z,96.80
2022-09-12T06:03:57.921Z,98.90
2022-09-12T06:06:27.251Z,97.70
2022-09-12T06:08:57.505Z,96.70
2022-09-12T06:11:27.071Z,96.00
2022-09-12T06:13:56.291Z,96.60
2022-09-12T06:16:27.018Z,97.40
2022-09-12T06:18:56.582Z,97.70
2022-09-12T06:21:26.443Z,98.60
2022-09-12T06:23:56.329Z,99.40
2022-09-12T06:26:25.607Z,98.90
2022-09-12T06:28:54.564Z,98.30
2022-09-12T06:31:25.102Z,97.80
2022-09-12T06:33:55.943Z,97.80
2022-09-12T06:36:25.940Z,97.60
2022-09-12T06:38:57.703Z,97.40
2022-09-12T06:41:26.786Z,97.40
2022-09-12T06:43:55.150Z,97.30
2022-09-12T06:46:23.515Z,97.20
2022-09-12T06:48:51.456Z,97.00
2022-09-12T06:51:21.185Z,97.00
2022-09-12T06:53:49.896Z,97.00
2022-09-12T06:56:19.894Z,96.90
2022-09-12T06:58:49.053Z,97.30
2022-09-12T07:01:18.561Z,97.80
2022-09-12T07:03:49.874Z,97.60
2022-09-12T07:06:20.619Z,98.60
2022-09-12T07:08:49.113Z,99.50
2022-09-12T07:11:18.706Z,99.90
2022-09-12T07:13:48.663Z,99.90
2022-09-12T07:16:19.907Z,99.90
2022-09-12T07:18:51.908Z,99.60
2022-09-12T07:21:21.594Z,98.10
2022-09-12T07:23:51.741Z,99.30
2022-09-12T07:26:19.714Z,99.90
2022-09-12T07:28:53.360Z,99.70
2022-09-12T07:31:22.698Z,99.90
2022-09-12T07:33:54.556Z,99.00
2022-09-12T07:36:26.018Z,99.40
2022-09-12T07:38:57.975Z,99.10
2022-09-12T07:41:27.598Z,99.90
2022-09-12T07:43:56.738Z,99.90
2022-09-12T07:46:25.832Z,99.90
2022-09-12T07:48:54.662Z,99.90
2022-09-12T07:51:24.766Z,99.90
2022-09-12T07:53:53.029Z,98.70
2022-09-12T07:56:26.129Z,99.20
2022-09-12T07:58:57.501Z,98.70
2022-09-12T08:01:25.728Z,99.90
2022-09-12T08:03:56.848Z,99.90
2022-09-12T08:06:27.831Z,99.90
2022-09-12T08:08:57.771Z,99.90
2022-09-12T08:11:27.769Z,99.90
2022-09-12T08:13:57.095Z,99.90
2022-09-12T08:16:26.792Z,99.60
2022-09-12T08:18:55.109Z,99.20
2022-09-12T08:21:26.047Z,99.00
2022-09-12T08:23:55.337Z,98.50
2022-09-12T08:26:24.596Z,97.80
2022-09-12T08:28:53.190Z,97.60
2022-09-12T08:31:22.695Z,97.30
2022-09-12T08:33:50.540Z,97.10
2022-09-12T08:36:20.977Z,97.00
2022-09-12T08:38:51.635Z,96.90
2022-09-12T08:41:28.198Z,96.70
2022-09-12T08:44:22.128Z,96.80
2022-09-12T08:47:03.262Z,96.60
2022-09-12T08:49:34.676Z,96.50
2022-09-12T08:52:08.043Z,96.40
2022-09-12T08:54:37.384Z,97.40
2022-09-12T08:57:07.113Z,96.60
2022-09-12T08:59:39.882Z,96.60
2022-09-12T09:02:28.026Z,96.50
2022-09-12T09:05:05.116Z,97.20
2022-09-12T09:07:56.163Z,96.60
2022-09-12T09:10:33.900Z,98.90
2022-09-12T09:13:09.532Z,99.90
2022-09-12T09:15:46.571Z,99.90
2022-09-12T09:18:22.646Z,99.40
2022-09-12T09:20:54.600Z,97.40
2022-09-12T09:23:27.814Z,97.40
2022-09-12T09:26:01.691Z,97.20
2022-09-12T09:28:37.491Z,96.90
2022-09-12T09:31:06.836Z,96.50
2022-09-12T09:33:36.093Z,96.40
2022-09-12T09:36:12.359Z,97.50
2022-09-12T09:38:48.191Z,96.40
2022-09-12T09:41:36.468Z,96.80
2022-09-12T09:44:04.847Z,96.10
2022-09-12T09:46:34.290Z,95.90
2022-09-12T09:49:03.850Z,95.80
2022-09-12T09:51:36.823Z,96.00
2022-09-12T09:54:12.453Z,95.60
2022-09-12T09:56:43.353Z,95.50
2022-09-12T09:59:12.778Z,95.30
2022-09-12T10:01:47.174Z,95.20
2022-09-12T10:04:23.389Z,95.10
2022-09-12T10:06:54.229Z,95.00
2022-09-12T10:09:25.811Z,95.40
2022-09-12T10:11:55.948Z,95.20
2022-09-12T10:14:36.678Z,96.30
2022-09-12T10:17:28.682Z,95.40
2022-09-12T10:20:19.975Z,95.50
2022-09-12T10:22:48.733Z,95.60
2022-09-12T10:25:20.139Z,95.60
2022-09-12T10:27:56.157Z,95.70
2022-09-12T10:30:26.038Z,95.30
2022-09-12T10:32:54.251Z,95.20
2022-09-12T10:35:25.950Z,95.10
2022-09-12T10:37:56.174Z,94.90
2022-09-12T10:40:27.433Z,94.70
2022-09-12T10:42:58.784Z,94.50
2022-09-12T10:45:29.971Z,94.60
2022-09-12T10:48:03.085Z,95.00
2022-09-12T10:50:37.439Z,94.90
2022-09-12T10:53:19.153Z,94.60
2022-09-12T10:56:05.118Z,94.30
2022-09-12T10:58:58.735Z,94.90
2022-09-12T11:01:44.152Z,94.90
2022-09-12T11:04:40.162Z,94.80
2022-09-12T11:07:23.578Z,94.60
2022-09-12T11:09:59.509Z,94.40
2022-09-12T11:12:38.184Z,94.10
2022-09-12T11:15:27.074Z,93.90
2022-09-12T11:18:01.693Z,94.50
2022-09-12T11:20:42.756Z,93.90
2022-09-12T11:23:55.919Z,93.70
2022-09-12T11:26:43.264Z,93.30
2022-09-12T11:29:20.019Z,92.70
2022-09-12T11:32:04.112Z,92.90
2022-09-12T11:34:40.231Z,92.90
2022-09-12T11:37:27.723Z,93.10
2022-09-12T11:39:57.982Z,92.70
2022-09-12T11:42:31.877Z,92.40
2022-09-12T11:45:06.096Z,92.60
2022-09-12T11:47:37.396Z,92.50
2022-09-12T11:50:16.708Z,92.60
2022-09-12T11:52:44.578Z,92.30
2022-09-12T11:55:18.281Z,92.30
2022-09-12T11:57:51.562Z,91.80
2022-09-12T12:00:21.978Z,92.20
2022-09-12T12:02:58.694Z,92.30
2022-09-12T12:05:29.952Z,91.50
2022-09-12T12:07:59.998Z,91.70
2022-09-12T12:10:33.945Z,90.90
2022-09-12T12:13:05.415Z,91.20
2022-09-12T12:15:35.921Z,90.60
2022-09-12T12:18:08.851Z,90.10
2022-09-12T12:20:37.146Z,89.50
2022-09-12T12:23:05.293Z,89.70
2022-09-12T12:25:42.479Z,89.60
2022-09-12T12:28:10.338Z,89.50
2022-09-12T12:31:05.911Z,88.90
2022-09-12T12:34:01.847Z,86.70
2022-09-12T12:36:38.446Z,87.70
2022-09-12T12:39:47.900Z,87.30
2022-09-12T12:43:04.458Z,87.90
2022-09-12T12:46:05.515Z,87.60
2022-09-12T12:48:57.950Z,87.40
2022-09-12T12:51:46.680Z,85.90
2022-09-12T12:54:36.489Z,86.40
2022-09-12T12:57:36.397Z,85.00
2022-09-12T13:00:09.697Z,86.10
2022-09-12T13:02:42.850Z,84.90
2022-09-12T13:05:24.090Z,84.10
2022-09-12T13:07:56.877Z,84.20
2022-09-12T13:10:29.206Z,82.50
2022-09-12T13:12:58.837Z,84.10
2022-09-12T13:16:02.959Z,83.60
2022-09-12T13:18:41.956Z,83.00
2022-09-12T13:21:14.277Z,82.70
2022-09-12T13:23:42.677Z,82.40
2022-09-12T13:26:13.936Z,82.10
2022-09-12T13:28:41.878Z,82.20
2022-09-12T13:31:16.915Z,78.30
2022-09-12T13:33:48.000Z,82.50
2022-09-12T13:36:32.728Z,82.30
2022-09-12T13:39:19.679Z,81.50
2022-09-12T13:42:38.976Z,80.50
2022-09-12T13:45:12.868Z,80.10
2022-09-12T13:47:44.093Z,84.60
2022-09-12T13:50:19.777Z,84.50
2022-09-12T13:52:53.562Z,83.90
2022-09-12T13:55:31.511Z,83.30
2022-09-12T13:58:01.971Z,83.20
2022-09-12T14:00:32.074Z,83.20
2022-09-12T14:03:18.027Z,83.30
2022-09-12T14:05:53.577Z,82.70
2022-09-12T14:08:24.681Z,81.90
2022-09-12T14:10:53.438Z,81.80
2022-09-12T14:13:23.651Z,81.60
2022-09-12T14:15:53.777Z,80.00
2022-09-12T14:18:25.498Z,77.50
2022-09-12T14:20:56.832Z,76.90
2022-09-12T14:23:30.369Z,79.00
2022-09-12T14:25:59.979Z,79.90
2022-09-12T14:28:30.167Z,80.00
2022-09-12T14:31:00.617Z,79.80
2022-09-12T14:33:28.759Z,80.60
2022-09-12T14:36:11.980Z,80.70
2022-09-12T14:38:45.188Z,80.70
2022-09-12T14:41:15.645Z,76.30
2022-09-12T14:43:46.941Z,80.20
2022-09-12T14:46:20.670Z,81.30
2022-09-12T14:48:52.550Z,81.40
2022-09-12T14:51:27.320Z,81.50
2022-09-12T14:53:56.678Z,81.40
2022-09-12T14:56:39.449Z,81.40
2022-09-12T14:59:29.667Z,81.60
2022-09-12T15:02:18.811Z,80.60
2022-09-12T15:04:48.295Z,81.00
2022-09-12T15:07:16.802Z,74.60
2022-09-12T15:09:47.451Z,80.40
2022-09-12T15:12:15.391Z,81.00
2022-09-12T15:14:43.223Z,80.30
2022-09-12T15:17:11.059Z,81.70
2022-09-12T15:19:38.903Z,79.70
2022-09-12T15:22:06.795Z,73.70
2022-09-12T15:24:34.665Z,81.00
2022-09-12T15:27:03.984Z,81.30
2022-09-12T15:29:31.820Z,81.00
2022-09-12T15:31:59.673Z,80.90
2022-09-12T15:34:27.534Z,80.60
2022-09-12T15:36:55.378Z,80.50
2022-09-12T15:39:23.297Z,80.30
2022-09-12T15:41:51.528Z,80.30
2022-09-12T15:44:20.856Z,80.20
2022-09-12T15:46:48.696Z,80.20
2022-09-12T15:49:16.545Z,76.70
2022-09-12T15:51:44.385Z,74.30
2022-09-12T15:54:15.945Z,74.60
2022-09-12T15:56:43.923Z,78.60
2022-09-12T15:59:11.760Z,78.20
2022-09-12T16:01:40.978Z,78.20
2022-09-12T16:04:21.710Z,77.70
2022-09-12T16:06:49.611Z,78.60
2022-09-12T16:09:17.689Z,78.60
2022-09-12T16:11:46.064Z,78.80
2022-09-12T16:14:15.263Z,78.90
2022-09-12T16:16:45.050Z,78.80
2022-09-12T16:19:13.338Z,78.70
2022-09-12T16:21:41.222Z,78.80
2022-09-12T16:24:09.208Z,78.70
2022-09-12T16:26:37.112Z,78.70
2022-09-12T16:29:05.164Z,78.40
2022-09-12T16:31:33.094Z,79.30
2022-09-12T16:34:02.339Z,79.70
2022-09-12T16:36:30.287Z,78.70
2022-09-12T16:38:58.135Z,79.90
2022-09-12T16:41:26.812Z,80.10
2022-09-12T16:43:55.798Z,80.00
2022-09-12T16:46:25.035Z,80.20
2022-09-12T16:48:54.530Z,80.40
2022-09-12T16:51:25.871Z,80.50
2022-09-12T16:53:55.143Z,80.50
2022-09-12T16:56:23.869Z,80.10
2022-09-12T16:58:51.884Z,80.10
2022-09-12T17:01:21.497Z,80.60
2022-09-12T17:03:53.377Z,77.60
2022-09-12T17:06:21.837Z,79.00
2022-09-12T17:08:52.626Z,80.90
2022-09-12T17:11:22.386Z,81.20
2022-09-12T17:14:07.394Z,81.10
2022-09-12T17:16:37.782Z,81.30
2022-09-12T17:19:06.369Z,81.60
2022-09-12T17:21:35.168Z,81.70
2022-09-12T17:24:05.267Z,81.90
2022-09-12T17:26:33.150Z,82.10
2022-09-12T17:29:01.557Z,82.20
2022-09-12T17:31:29.490Z,82.40
2022-09-12T17:33:58.854Z,82.40
2022-09-12T17:36:28.411Z,82.50
2022-09-12T17:38:56.402Z,82.60
2022-09-12T17:41:28.742Z,82.70
2022-09-12T17:43:58.700Z,82.90
2022-09-12T17:46:28.543Z,83.00
2022-09-12T17:48:58.241Z,83.00
2022-09-12T17:51:28.919Z,83.20
2022-09-12T17:53:59.001Z,83.30
2022-09-12T17:56:29.495Z,83.40
2022-09-12T17:58:58.729Z,83.50
2022-09-12T18:01:45.134Z,83.70
2022-09-12T18:04:13.643Z,83.70
2022-09-12T18:06:47.719Z,84.50
2022-09-12T18:09:17.605Z,83.90
2022-09-12T18:11:48.055Z,84.00
2022-09-12T18:14:17.247Z,84.10
2022-09-12T18:16:45.538Z,84.10
2022-09-12T18:19:13.800Z,84.20
2022-09-12T18:21:41.941Z,84.40
2022-09-12T18:24:11.154Z,84.40
2022-09-12T18:26:39.179Z,84.50
2022-09-12T18:29:08.487Z,84.60
2022-09-12T18:31:36.945Z,84.70
2022-09-12T18:34:06.174Z,84.80
2022-09-12T18:36:34.042Z,84.90
2022-09-12T18:39:01.899Z,85.00
2022-09-12T18:41:29.809Z,84.90
2022-09-12T18:43:59.322Z,84.70
2022-09-12T18:46:30.372Z,84.70
2022-09-12T18:48:59.043Z,84.70
2022-09-12T18:51:31.287Z,84.70
2022-09-12T18:54:01.228Z,84.50
2022-09-12T18:56:32.620Z,85.90
2022-09-12T18:59:02.124Z,86.60
2022-09-12T19:01:32.850Z,87.70
2022-09-12T19:04:04.592Z,87.30
2022-09-12T19:06:34.514Z,87.20
2022-09-12T19:09:07.339Z,86.10
2022-09-12T19:11:35.939Z,87.40
2022-09-12T19:14:03.904Z,87.90
2022-09-12T19:16:33.732Z,87.80
2022-09-12T19:19:02.567Z,87.70
2022-09-12T19:21:31.856Z,87.60
2022-09-12T19:24:02.264Z,87.70
2022-09-12T19:26:30.357Z,87.50
2022-09-12T19:28:58.428Z,87.40
2022-09-12T19:31:26.665Z,87.40
2022-09-12T19:34:00.225Z,87.60
2022-09-12T19:36:44.235Z,87.70
2022-09-12T19:39:13.046Z,87.80
2022-09-12T19:41:40.953Z,87.90
2022-09-12T19:44:09.046Z,88.10
2022-09-12T19:46:36.976Z,88.20
2022-09-12T19:49:06.222Z,88.30
2022-09-12T19:51:34.127Z,88.30
2022-09-12T19:54:02.890Z,88.30
2022-09-12T19:56:30.884Z,88.40
2022-09-12T19:58:58.867Z,88.60
2022-09-12T20:01:29.073Z,88.70
2022-09-12T20:03:57.827Z,88.60
2022-09-12T20:06:27.714Z,88.40
2022-09-12T20:08:55.994Z,88.40
2022-09-12T20:11:25.502Z,88.30
2022-09-12T20:13:53.739Z,88.40
2022-09-12T20:16:24.484Z,88.60
2022-09-12T20:18:55.562Z,88.70
2022-09-12T20:21:31.122Z,89.30
2022-09-12T20:24:02.241Z,88.80
2022-09-12T20:26:30.405Z,88.80
2022-09-12T20:28:58.343Z,88.90
2022-09-12T20:31:26.328Z,89.00
2022-09-12T20:33:54.939Z,89.00
2022-09-12T20:36:23.081Z,89.00
2022-09-12T20:38:54.246Z,89.20
2022-09-12T20:41:22.527Z,89.20
2022-09-12T20:43:51.097Z,89.30
2022-09-12T20:46:21.865Z,89.10
2022-09-12T20:48:50.439Z,89.20
2022-09-12T20:51:18.859Z,89.20
2022-09-12T20:53:46.791Z,89.20
2022-09-12T20:56:16.123Z,89.50
2022-09-12T20:58:44.783Z,89.60
2022-09-12T21:01:15.725Z,89.20
2022-09-12T21:03:45.086Z,89.70
2022-09-12T21:06:14.281Z,89.80
2022-09-12T21:08:42.196Z,89.90
2022-09-12T21:11:10.334Z,89.60
2022-09-12T21:13:40.136Z,89.70
2022-09-12T21:16:09.945Z,89.70
2022-09-12T21:18:38.372Z,89.80
2022-09-12T21:21:06.715Z,89.70
2022-09-12T21:23:34.943Z,90.00
2022-09-12T21:26:03.864Z,88.80
2022-09-12T21:28:31.986Z,88.90
2022-09-12T21:31:01.575Z,88.80
2022-09-12T21:33:29.748Z,88.90
2022-09-12T21:36:03.448Z,89.70
2022-09-12T21:38:31.730Z,89.30
2022-09-12T21:41:07.434Z,88.70
2022-09-12T21:43:35.397Z,86.50
2022-09-12T21:46:05.348Z,87.40
2022-09-12T21:48:33.716Z,87.00
2022-09-12T21:51:01.851Z,86.80
2022-09-12T21:53:29.874Z,86.70
2022-09-12T21:56:02.263Z,86.10
2022-09-12T21:58:30.234Z,87.00
2022-09-12T22:00:58.290Z,87.20
2022-09-12T22:03:27.972Z,86.70
2022-09-12T22:05:59.888Z,86.90
2022-09-12T22:08:28.619Z,87.40
2022-09-12T22:11:00.422Z,86.90
2022-09-12T22:13:28.294Z,87.60
2022-09-12T22:15:56.835Z,87.20
2022-09-12T22:18:24.826Z,87.20
2022-09-12T22:21:01.612Z,87.90
2022-09-12T22:23:47.386Z,87.50
2022-09-12T22:26:15.340Z,88.30
2022-09-12T22:28:43.331Z,88.40
2022-09-12T22:31:12.511Z,88.90
2022-09-12T22:33:40.937Z,88.30
2022-09-12T22:36:11.235Z,89.00
2022-09-12T22:38:39.174Z,88.80
2022-09-12T22:41:09.124Z,88.10
2022-09-12T22:43:37.675Z,88.50
2022-09-12T22:46:07.751Z,88.70
2022-09-12T22:48:35.748Z,88.60
2022-09-12T22:51:03.596Z,84.20
2022-09-12T22:53:32.843Z,87.50
2022-09-12T22:56:00.686Z,89.00
2022-09-12T22:58:28.926Z,88.10
2022-09-12T23:00:56.801Z,85.70
2022-09-12T23:03:24.850Z,88.20
2022-09-12T23:05:52.752Z,89.50
2022-09-12T23:08:20.650Z,89.60
2022-09-12T23:10:49.843Z,88.90
2022-09-12T23:13:17.734Z,88.30
2022-09-12T23:15:45.591Z,87.50
2022-09-12T23:18:13.445Z,86.20
2022-09-12T23:20:41.299Z,87.30
2022-09-12T23:23:09.722Z,87.90
2022-09-12T23:25:38.014Z,87.70
2022-09-12T23:28:07.219Z,87.20
2022-09-12T23:30:35.067Z,86.00
2022-09-12T23:33:02.931Z,86.60
2022-09-12T23:35:30.780Z,86.40
2022-09-12T23:37:58.771Z,86.30
2022-09-12T23:40:26.619Z,86.50
2022-09-12T23:42:54.556Z,86.30
2022-09-12T23:45:23.810Z,86.20
2022-09-12T23:47:51.688Z,86.00
2022-09-12T23:50:19.546Z,85.80
2022-09-12T23:52:47.401Z,86.50
2022-09-12T23:55:15.361Z,86.50
2022-09-12T23:57:43.227Z,86.90
